Track Шепитько Даниэль

Time Latitude Longitude Accuracy (66% radius in meters) Altitude (meters) Speed (km/hour) Bearing (degrees) Battery (%) GPS flag
11:11:13 57.203964 60.118161 0 0 0 0 1 delete
11:11:12 57.203964 60.118155 0 0 0 0 1 delete
11:11:11 57.203965 60.118150 0 0 0 0 1 delete
11:11:10 57.203970 60.118142 0 0 0 0 1 delete
11:11:09 57.203981 60.118126 0 0 0 0 1 delete
11:11:08 57.204000 60.118098 0 0 0 0 1 delete
11:11:07 57.204023 60.118064 0 0 0 0 1 delete
11:11:06 57.204048 60.118032 0 0 0 0 1 delete
11:11:05 57.204071 60.118002 0 0 0 0 1 delete
11:11:04 57.204092 60.117969 0 0 0 0 1 delete
11:11:03 57.204112 60.117942 0 0 0 0 1 delete
11:11:02 57.204132 60.117913 0 0 0 0 1 delete
11:11:01 57.204153 60.117885 0 0 0 0 1 delete
11:11:00 57.204179 60.117846 0 0 0 0 1 delete
11:10:59 57.204205 60.117806 0 0 0 0 1 delete
11:10:58 57.204231 60.117765 0 0 0 0 1 delete
11:10:57 57.204257 60.117726 0 0 0 0 1 delete
11:10:56 57.204286 60.117689 0 0 0 0 1 delete
11:10:55 57.204317 60.117658 0 0 0 0 1 delete
11:10:54 57.204350 60.117626 0 0 0 0 1 delete
11:10:53 57.204387 60.117599 0 0 0 0 1 delete
11:10:52 57.204423 60.117571 0 0 0 0 1 delete
11:10:51 57.204462 60.117550 0 0 0 0 1 delete
11:10:50 57.204497 60.117527 0 0 0 0 1 delete
11:10:49 57.204532 60.117506 0 0 0 0 1 delete
11:10:48 57.204569 60.117485 0 0 0 0 1 delete
11:10:47 57.204610 60.117472 0 0 0 0 1 delete
11:10:46 57.204653 60.117464 0 0 0 0 1 delete
11:10:45 57.204694 60.117467 0 0 0 0 1 delete
11:10:44 57.204731 60.117469 0 0 0 0 1 delete
11:10:43 57.204769 60.117477 0 0 0 0 1 delete
11:10:42 57.204808 60.117483 0 0 0 0 1 delete
11:10:41 57.204847 60.117492 0 0 0 0 1 delete
11:10:40 57.204887 60.117502 0 0 0 0 1 delete
11:10:39 57.204926 60.117515 0 0 0 0 1 delete
11:10:38 57.204965 60.117530 0 0 0 0 1 delete
11:10:37 57.204997 60.117535 0 0 0 0 1 delete
11:10:36 57.205026 60.117537 0 0 0 0 1 delete
11:10:35 57.205054 60.117536 0 0 0 0 1 delete
11:10:34 57.205080 60.117533 0 0 0 0 1 delete
11:10:33 57.205104 60.117525 0 0 0 0 1 delete
11:10:32 57.205126 60.117518 0 0 0 0 1 delete
11:10:31 57.205147 60.117506 0 0 0 0 1 delete
11:10:30 57.205165 60.117489 0 0 0 0 1 delete
11:10:29 57.205183 60.117462 0 0 0 0 1 delete
11:10:28 57.205202 60.117433 0 0 0 0 1 delete
11:10:27 57.205218 60.117396 0 0 0 0 1 delete
11:10:26 57.205228 60.117354 0 0 0 0 1 delete
11:10:25 57.205235 60.117313 0 0 0 0 1 delete
11:10:24 57.205245 60.117284 0 0 0 0 1 delete